Time;durP1;ratioP1;P1;durP2;ratioP2;P2;SDS_P1;SDS_P2;PMS_P1;PMS_P2;Temp;Humidity;BMP_temperature;BMP_pressure;BME280_temperature;BME280_humidity;BME280_pressure;Samples;Min_cycle;Max_cycle;Signal;HPM_P1;HPM_P2
2021/01/13 00:00:43;;;;;;;;;;;;;;;-2.81;84.44;100492.70;1902587;75;20445;-39
2021/01/13 00:03:11;;;;;;;;;;;;;;;-2.81;84.42;100485.41;1902296;75;20199;-39
2021/01/13 00:05:40;;;;;;;;;;;;;;;-2.81;84.37;100476.02;1896814;75;20417;-39
2021/01/13 00:08:08;;;;;;;;;;;;;;;-2.81;84.43;100485.41;1902357;75;20172;-39
2021/01/13 00:10:36;;;;;;;;;;;;;;;-2.82;84.52;100469.14;1902588;75;20172;-39
2021/01/13 00:13:04;;;;;;;;;;;;;;;-2.84;84.61;100450.70;1902356;75;20136;-38
2021/01/13 00:15:32;;;;;;;;;;;;;;;-2.84;84.73;100442.59;1902439;75;20267;-38
2021/01/13 00:18:00;;;;;;;;;;;;;;;-2.84;84.85;100455.42;1902454;75;20255;-39
2021/01/13 00:20:28;;;;;;;;;;;;;;;-2.84;84.97;100440.44;1902624;75;20143;-39
2021/01/13 00:22:58;;;;;;;;;;;;;;;-2.83;85.07;100441.78;1902315;75;20212;-40
2021/01/13 00:25:26;;;;;;;;;;;;;;;-2.83;85.22;100421.67;1902187;75;20199;-38
2021/01/13 00:27:53;;;;;;;;;;;;;;;-2.83;85.33;100399.45;1902496;75;20159;-48
2021/01/13 00:30:21;;;;;;;;;;;;;;;-2.85;85.46;100389.55;1888298;75;20180;-40
2021/01/13 00:32:50;;;;;;;;;;;;;;;-2.84;85.60;100374.62;1867336;76;20359;-39
2021/01/13 00:35:17;;;;;;;;;;;;;;;-2.84;85.74;100388.73;1867426;77;20128;-37
2021/01/13 00:37:46;;;;;;;;;;;;;;;-2.83;85.91;100397.30;1867443;76;20283;-38
2021/01/13 00:40:15;;;;;;;;;;;;;;;-2.84;86.06;100401.56;1867487;76;20132;-39
2021/01/13 00:42:44;;;;;;;;;;;;;;;-2.83;86.29;100403.30;1867273;77;20124;-39
2021/01/13 00:45:13;;;;;;;;;;;;;;;-2.85;86.57;100398.94;1871333;75;20457;-40
2021/01/13 00:47:42;;;;;;;;;;;;;;;-2.87;87.07;100394.16;1871920;75;20166;-38
2021/01/13 00:50:12;;;;;;;;;;;;;;;-2.94;87.62;100377.70;1870948;75;20469;-40
2021/01/13 00:52:48;;;;;;;;;;;;;;;-3.02;88.35;100380.87;1869187;75;20292;-41
2021/01/13 00:55:15;;;;;;;;;;;;;;;-3.08;89.32;100375.51;1871808;75;20269;-40
2021/01/13 00:57:49;;;;;;;;;;;;;;;-3.16;90.13;100365.03;1885230;75;20176;-39
2021/01/13 01:00:20;;;;;;;;;;;;;;;-3.19;90.85;100362.77;1868538;75;20129;-39
2021/01/13 01:02:50;;;;;;;;;;;;;;;-3.23;91.62;100368.21;1868729;75;20137;-39
2021/01/13 01:05:19;;;;;;;;;;;;;;;-3.29;92.30;100355.20;1868225;75;20185;-39
2021/01/13 01:07:47;;;;;;;;;;;;;;;-3.33;92.93;100358.46;1891128;75;20234;-39
2021/01/13 01:10:21;;;;;;;;;;;;;;;-3.37;93.56;100334.84;1902204;75;20262;-39
2021/01/13 01:12:49;;;;;;;;;;;;;;;-3.40;94.08;100327.05;1902409;75;20394;-38
2021/01/13 01:15:17;;;;;;;;;;;;;;;-3.43;94.59;100321.83;1902437;75;20226;-40
2021/01/13 01:17:45;;;;;;;;;;;;;;;-3.47;94.99;100304.19;1902278;75;20242;-39
2021/01/13 01:20:14;;;;;;;;;;;;;;;-3.51;95.36;100289.95;1902169;75;20275;-44
2021/01/13 01:22:53;;;;;;;;;;;;;;;-3.53;95.72;100286.05;1902183;75;20132;-41
2021/01/13 01:25:24;;;;;;;;;;;;;;;-3.55;96.08;100280.03;1902549;75;20223;-39
2021/01/13 01:27:53;;;;;;;;;;;;;;;-3.56;96.38;100273.16;1902498;75;20366;-39
2021/01/13 01:30:24;;;;;;;;;;;;;;;-3.58;96.69;100264.95;1902415;75;20179;-39
2021/01/13 01:32:51;;;;;;;;;;;;;;;-3.59;96.98;100232.06;1902429;75;20394;-39
2021/01/13 01:35:19;;;;;;;;;;;;;;;-3.59;97.27;100222.22;1902427;75;20132;-39
2021/01/13 01:37:49;;;;;;;;;;;;;;;-3.62;97.53;100214.05;1902051;75;20136;-42
2021/01/13 01:40:18;;;;;;;;;;;;;;;-3.63;97.81;100210.62;1902111;75;20167;-40
2021/01/13 01:42:49;;;;;;;;;;;;;;;-3.64;98.08;100212.71;1902552;75;20170;-40
2021/01/13 01:45:18;;;;;;;;;;;;;;;-3.64;98.37;100185.81;1902177;75;20140;-39
2021/01/13 01:48:09;;;;;;;;;;;;;;;-3.66;98.64;100172.08;1902428;75;20473;-40
2021/01/13 01:50:40;;;;;;;;;;;;;;;-3.67;98.89;100146.41;1902140;75;20232;-38
2021/01/13 01:53:34;;;;;;;;;;;;;;;-3.68;99.16;100133.17;1902643;75;20227;-38
2021/01/13 01:56:17;;;;;;;;;;;;;;;-3.69;99.41;100137.42;1902310;75;20297;-40
2021/01/13 01:58:49;;;;;;;;;;;;;;;-3.70;99.65;100115.19;1902346;75;20136;-41
2021/01/13 02:01:21;;;;;;;;;;;;;;;-3.69;99.85;100101.98;1902351;75;20147;-39
2021/01/13 02:03:52;;;;;;;;;;;;;;;-3.70;100.00;100098.95;1902517;75;20124;-39
2021/01/13 02:06:21;;;;;;;;;;;;;;;-3.69;100.00;100083.64;1902427;75;20137;-39
2021/01/13 02:08:49;;;;;;;;;;;;;;;-3.68;100.00;100086.66;1869229;75;20242;-39
2021/01/13 02:11:18;;;;;;;;;;;;;;;-3.67;100.00;100072.14;1902118;75;20152;-38
2021/01/13 02:13:47;;;;;;;;;;;;;;;-3.66;100.00;100044.02;1902452;75;20448;-39
2021/01/13 02:16:16;;;;;;;;;;;;;;;-3.67;100.00;100043.96;1902182;75;20131;-39
2021/01/13 02:18:46;;;;;;;;;;;;;;;-3.66;100.00;100026.50;1902438;75;20224;-38
2021/01/13 02:21:16;;;;;;;;;;;;;;;-3.66;100.00;100019.68;1902228;75;20267;-40
2021/01/13 02:27:10;;;;;;;;;;;;;;;-3.62;100.00;100021.94;1908370;74;20122;-39
2021/01/13 02:29:52;;;;;;;;;;;;;;;-3.66;100.00;100016.25;1886919;75;20132;-39
2021/01/13 02:32:26;;;;;;;;;;;;;;;-3.66;100.00;100005.59;1841515;75;20266;-40
2021/01/13 02:35:09;;;;;;;;;;;;;;;-3.65;100.00;99995.81;1903043;75;20286;-39
2021/01/13 02:37:44;;;;;;;;;;;;;;;-3.64;100.00;99983.47;1903029;75;20227;-39
2021/01/13 02:40:19;;;;;;;;;;;;;;;-3.64;100.00;99961.70;1903028;75;20158;-39
2021/01/13 02:43:07;;;;;;;;;;;;;;;-3.62;100.00;99952.38;1903442;75;20144;-40
2021/01/13 02:45:37;;;;;;;;;;;;;;;-3.60;100.00;99949.83;1902993;75;20270;-42
2021/01/13 02:48:13;;;;;;;;;;;;;;;-3.59;100.00;99946.45;1903039;75;20282;-39
2021/01/13 02:50:49;;;;;;;;;;;;;;;-3.58;100.00;99912.73;1902986;75;20207;-39
2021/01/13 02:53:20;;;;;;;;;;;;;;;-3.58;100.00;99944.75;1884017;75;20140;-40
2021/01/13 02:55:58;;;;;;;;;;;;;;;-3.58;100.00;99930.66;1903111;75;20390;-39
2021/01/13 02:58:27;;;;;;;;;;;;;;;-3.58;100.00;99917.45;1903048;75;20266;-39
2021/01/13 03:00:55;;;;;;;;;;;;;;;-3.57;100.00;99897.83;1903073;75;20528;-39
2021/01/13 03:03:24;;;;;;;;;;;;;;;-3.57;100.00;99893.98;1903392;75;20402;-39
2021/01/13 03:05:53;;;;;;;;;;;;;;;-3.57;100.00;99875.64;1903134;75;20394;-38
2021/01/13 03:08:24;;;;;;;;;;;;;;;-3.56;100.00;99859.45;1903255;75;20170;-40
2021/01/13 03:10:52;;;;;;;;;;;;;;;-3.57;100.00;99830.81;1893326;75;20124;-39
2021/01/13 03:13:20;;;;;;;;;;;;;;;-3.58;100.00;99792.34;1838347;77;20214;-39
2021/01/13 03:15:49;;;;;;;;;;;;;;;-3.57;100.00;99813.30;1821243;79;20142;-39
2021/01/13 03:18:21;;;;;;;;;;;;;;;-3.59;100.00;99796.59;1843492;77;20176;-40
2021/01/13 03:20:56;;;;;;;;;;;;;;;-3.58;100.00;99793.63;1846162;77;20137;-39
2021/01/13 03:23:27;;;;;;;;;;;;;;;-3.60;100.00;99784.61;1857092;77;20235;-39
2021/01/13 03:25:58;;;;;;;;;;;;;;;-3.61;100.00;99781.19;1858499;77;20173;-39
2021/01/13 03:28:34;;;;;;;;;;;;;;;-3.61;100.00;99781.63;1830042;78;20176;-40
2021/01/13 03:31:03;;;;;;;;;;;;;;;-3.59;100.00;99793.17;1830047;78;20137;-40
2021/01/13 03:33:52;;;;;;;;;;;;;;;-3.59;100.00;99762.02;1830277;78;20402;-40
2021/01/13 03:36:39;;;;;;;;;;;;;;;-3.57;100.00;99778.30;1828234;78;20144;-39
2021/01/13 03:39:08;;;;;;;;;;;;;;;-3.56;100.00;99778.76;1829737;78;20386;-39
2021/01/13 03:41:48;;;;;;;;;;;;;;;-3.51;100.00;99798.95;1829483;78;20180;-38
2021/01/13 03:44:16;;;;;;;;;;;;;;;-3.48;100.00;99804.16;1829346;78;20172;-39
2021/01/13 03:46:46;;;;;;;;;;;;;;;-3.44;100.00;99829.02;1798765;78;20531;-39
2021/01/13 03:49:14;;;;;;;;;;;;;;;-3.39;100.00;99849.62;1829431;78;20172;-38
2021/01/13 03:52:00;;;;;;;;;;;;;;;-3.35;100.00;99855.29;1813499;78;20244;-39
2021/01/13 03:54:33;;;;;;;;;;;;;;;-3.30;100.00;99850.73;1829367;78;20212;-38
2021/01/13 03:57:06;;;;;;;;;;;;;;;-3.25;100.00;99865.80;1829691;78;20165;-39
2021/01/13 03:59:55;;;;;;;;;;;;;;;-3.22;100.00;99870.14;1829129;78;20145;-40
2021/01/13 04:02:29;;;;;;;;;;;;;;;-3.19;100.00;99865.49;1829555;78;20299;-39
2021/01/13 04:05:03;;;;;;;;;;;;;;;-3.16;100.00;99856.20;1829269;78;20233;-39
2021/01/13 04:07:38;;;;;;;;;;;;;;;-3.13;100.00;99826.77;1829456;78;20181;-39
2021/01/13 04:10:13;;;;;;;;;;;;;;;-3.10;100.00;99802.92;1829525;78;20473;-39
2021/01/13 04:12:50;;;;;;;;;;;;;;;-3.09;100.00;99791.43;1829532;78;20445;-39
2021/01/13 04:15:19;;;;;;;;;;;;;;;-3.07;100.00;99774.78;1808590;78;20125;-39
2021/01/13 04:17:47;;;;;;;;;;;;;;;-3.08;100.00;99773.91;1829632;78;20394;-40
2021/01/13 04:20:16;;;;;;;;;;;;;;;-3.06;100.00;99763.28;1829468;78;20185;-39
2021/01/13 04:22:45;;;;;;;;;;;;;;;-3.04;100.00;99747.53;1829668;78;20168;-40
2021/01/13 04:25:15;;;;;;;;;;;;;;;-3.01;100.00;99747.99;1813840;78;20869;-39
2021/01/13 04:27:43;;;;;;;;;;;;;;;-3.00;100.00;99761.27;1830566;77;20175;-39
2021/01/13 04:30:12;;;;;;;;;;;;;;;-3.00;100.00;99730.09;1829526;78;20425;-40
2021/01/13 04:32:40;;;;;;;;;;;;;;;-2.99;100.00;99739.92;1829530;78;20167;-39
2021/01/13 04:35:10;;;;;;;;;;;;;;;-2.98;100.00;99728.84;1829374;78;20362;-40
2021/01/13 04:37:38;;;;;;;;;;;;;;;-2.99;100.00;99734.39;1829641;78;20381;-40
2021/01/13 04:40:25;;;;;;;;;;;;;;;-2.97;100.00;99735.71;1829387;78;20174;-40
2021/01/13 04:43:08;;;;;;;;;;;;;;;-2.96;100.00;99731.91;1808961;77;20319;-40
2021/01/13 04:45:46;;;;;;;;;;;;;;;-2.95;100.00;99746.43;1812029;78;20320;-40
2021/01/13 04:48:17;;;;;;;;;;;;;;;-2.93;100.00;99764.00;1840857;77;20440;-41
2021/01/13 04:50:49;;;;;;;;;;;;;;;-2.90;100.00;99752.55;1829056;77;20273;-39
2021/01/13 04:53:18;;;;;;;;;;;;;;;-2.88;100.00;99747.42;1830004;77;20226;-38
2021/01/13 04:55:56;;;;;;;;;;;;;;;-2.89;100.00;99741.43;1829420;78;20434;-39
2021/01/13 04:58:38;;;;;;;;;;;;;;;-2.88;100.00;99737.17;1829541;77;20145;-40
2021/01/13 05:01:30;;;;;;;;;;;;;;;-2.90;100.00;99723.06;1797698;78;20203;-40
2021/01/13 05:04:22;;;;;;;;;;;;;;;-2.91;100.00;99702.09;1823700;77;20375;-40
2021/01/13 05:07:13;;;;;;;;;;;;;;;-2.94;100.00;99687.05;1829361;78;20478;-40
2021/01/13 05:09:47;;;;;;;;;;;;;;;-2.97;100.00;99689.56;1829087;77;20377;-39
2021/01/13 05:12:14;;;;;;;;;;;;;;;-2.98;100.00;99690.39;1829176;78;20194;-41
2021/01/13 05:14:43;;;;;;;;;;;;;;;-3.01;100.00;99687.33;1850160;77;20231;-39
2021/01/13 05:17:33;;;;;;;;;;;;;;;-3.03;100.00;99667.23;1837221;77;20485;-40
2021/01/13 05:20:11;;;;;;;;;;;;;;;-3.04;100.00;99657.80;1829444;78;20194;-41
2021/01/13 05:22:39;;;;;;;;;;;;;;;-3.04;100.00;99645.39;1794716;78;20227;-39
2021/01/13 05:25:09;;;;;;;;;;;;;;;-3.03;100.00;99642.00;1807203;78;20125;-40
2021/01/13 05:27:49;;;;;;;;;;;;;;;-3.01;100.00;99635.19;1837307;77;20396;-41
2021/01/13 05:30:17;;;;;;;;;;;;;;;-2.98;100.00;99654.50;1831052;77;20196;-44
2021/01/13 05:32:45;;;;;;;;;;;;;;;-2.95;100.00;99660.95;1815941;77;20163;-41
2021/01/13 05:35:15;;;;;;;;;;;;;;;-2.93;100.00;99644.77;1831381;77;20180;-40
2021/01/13 05:38:07;;;;;;;;;;;;;;;-2.90;100.00;99632.03;1815876;77;20396;-38
2021/01/13 05:40:45;;;;;;;;;;;;;;;-2.88;100.00;99631.62;1835815;77;20199;-39
2021/01/13 05:43:13;;;;;;;;;;;;;;;-2.87;100.00;99614.13;1841826;77;20187;-41
2021/01/13 05:45:43;;;;;;;;;;;;;;;-2.83;100.00;99604.80;1835711;77;20279;-40
2021/01/13 05:48:22;;;;;;;;;;;;;;;-2.81;100.00;99589.00;1833263;77;20186;-42
2021/01/13 05:50:55;;;;;;;;;;;;;;;-2.79;100.00;99579.65;1839801;77;20246;-40
2021/01/13 05:53:24;;;;;;;;;;;;;;;-2.75;100.00;99566.45;1794196;78;20473;-40
2021/01/13 05:55:54;;;;;;;;;;;;;;;-2.71;100.00;99532.34;1803546;78;20240;-40
2021/01/13 05:58:26;;;;;;;;;;;;;;;-2.67;100.00;99555.50;1811843;77;20210;-40
2021/01/13 06:00:58;;;;;;;;;;;;;;;-2.62;100.00;99560.28;1829044;77;20426;-41
2021/01/13 06:03:29;;;;;;;;;;;;;;;-2.56;100.00;99564.23;1808633;77;20232;-40
2021/01/13 06:06:02;;;;;;;;;;;;;;;-2.50;100.00;99564.38;1823458;77;20204;-40
2021/01/13 06:08:31;;;;;;;;;;;;;;;-2.43;100.00;99582.02;1817605;77;20182;-40
2021/01/13 06:11:02;;;;;;;;;;;;;;;-2.39;100.00;99581.22;1795756;77;20232;-40
2021/01/13 06:13:33;;;;;;;;;;;;;;;-2.32;100.00;99570.64;1811380;78;20162;-39
2021/01/13 06:16:04;;;;;;;;;;;;;;;-2.27;100.00;99571.57;1775035;78;20308;-41
2021/01/13 06:18:35;;;;;;;;;;;;;;;-2.23;100.00;99570.80;1784597;78;20502;-40
2021/01/13 06:21:10;;;;;;;;;;;;;;;-2.18;100.00;99576.45;1778136;77;20170;-42
2021/01/13 06:26:52;;;;;;;;;;;;;;;-2.04;100.00;99568.55;1895990;74;20203;-41
2021/01/13 06:29:30;;;;;;;;;;;;;;;-2.02;100.00;99580.10;1859492;75;20493;-42
2021/01/13 06:31:58;;;;;;;;;;;;;;;-1.98;100.00;99575.48;1872278;75;20312;-42
2021/01/13 06:34:30;;;;;;;;;;;;;;;-1.93;100.00;99578.97;1873263;75;20339;-40
2021/01/13 06:37:16;;;;;;;;;;;;;;;-1.90;100.00;99583.30;1867211;75;20417;-42
2021/01/13 06:39:44;;;;;;;;;;;;;;;-1.85;100.00;99579.09;1873496;75;20204;-40
2021/01/13 06:42:14;;;;;;;;;;;;;;;-1.81;100.00;99573.14;1870119;75;20477;-41
2021/01/13 06:44:44;;;;;;;;;;;;;;;-1.77;100.00;99561.64;1870979;75;20259;-40
2021/01/13 06:47:15;;;;;;;;;;;;;;;-1.72;100.00;99541.17;1867699;75;20240;-43
2021/01/13 06:49:49;;;;;;;;;;;;;;;-1.69;100.00;99521.52;1870776;75;20178;-42
2021/01/13 06:52:30;;;;;;;;;;;;;;;-1.61;100.00;99499.78;1886166;75;20131;-42
2021/01/13 06:55:00;;;;;;;;;;;;;;;-1.55;100.00;99496.42;1867111;77;20133;-41
2021/01/13 06:57:31;;;;;;;;;;;;;;;-1.52;100.00;99485.77;1879287;75;20211;-42
2021/01/13 07:00:00;;;;;;;;;;;;;;;-1.48;100.00;99475.95;1847083;77;20173;-43
2021/01/13 07:02:38;;;;;;;;;;;;;;;-1.45;100.00;99488.86;1874683;75;20286;-44
2021/01/13 07:05:10;;;;;;;;;;;;;;;-1.41;100.00;99483.31;1867737;75;20193;-41
2021/01/13 07:07:47;;;;;;;;;;;;;;;-1.37;100.00;99485.92;1871067;75;20164;-42
2021/01/13 07:10:17;;;;;;;;;;;;;;;-1.33;100.00;99483.85;1834603;75;20603;-42
2021/01/13 07:12:47;;;;;;;;;;;;;;;-1.28;100.00;99478.33;1867656;75;20240;-40
2021/01/13 07:15:15;;;;;;;;;;;;;;;-1.25;100.00;99462.92;1839571;75;20189;-46
2021/01/13 07:17:44;;;;;;;;;;;;;;;-1.22;100.00;99438.54;1868522;75;20186;-41
2021/01/13 07:20:13;;;;;;;;;;;;;;;-1.16;100.00;99434.30;1881715;75;20213;-41
2021/01/13 07:22:43;;;;;;;;;;;;;;;-1.13;100.00;99430.48;1871287;75;20183;-40
2021/01/13 07:25:13;;;;;;;;;;;;;;;-1.10;100.00;99439.08;1864736;76;20199;-43
2021/01/13 07:27:44;;;;;;;;;;;;;;;-1.06;100.00;99430.56;1894513;76;20390;-41
2021/01/13 07:30:13;;;;;;;;;;;;;;;-1.04;100.00;99436.98;1871600;75;20204;-41
2021/01/13 07:32:42;;;;;;;;;;;;;;;-1.01;100.00;99440.88;1870846;75;20182;-41
2021/01/13 07:35:11;;;;;;;;;;;;;;;-1.00;100.00;99451.20;1877137;75;20404;-41
2021/01/13 07:37:45;;;;;;;;;;;;;;;-0.99;100.00;99447.78;1873687;75;20326;-42
2021/01/13 07:40:40;;;;;;;;;;;;;;;-0.92;100.00;99453.84;1900303;74;20288;-41
2021/01/13 07:43:11;;;;;;;;;;;;;;;-0.94;100.00;99450.38;1836966;75;20218;-41
2021/01/13 07:45:44;;;;;;;;;;;;;;;-0.92;100.00;99439.23;1874805;75;20184;-42
2021/01/13 07:48:27;;;;;;;;;;;;;;;-0.88;100.00;99445.30;1872764;75;20263;-39
2021/01/13 07:51:08;;;;;;;;;;;;;;;-0.86;100.00;99445.76;1871638;75;20183;-41
2021/01/13 07:53:37;;;;;;;;;;;;;;;-0.82;100.00;99432.48;1878497;75;20314;-39
2021/01/13 07:56:10;;;;;;;;;;;;;;;-0.77;100.00;99397.34;1829067;75;20392;-41
2021/01/13 07:58:37;;;;;;;;;;;;;;;-0.72;100.00;99375.08;1866683;75;20401;-40
2021/01/13 08:01:21;;;;;;;;;;;;;;;-0.66;100.00;99358.84;1846934;75;20207;-39
2021/01/13 08:04:16;;;;;;;;;;;;;;;-0.64;100.00;99321.95;1872445;75;20525;-37
2021/01/13 08:06:48;;;;;;;;;;;;;;;-0.62;100.00;99331.84;1876421;75;20221;-38
2021/01/13 08:09:24;;;;;;;;;;;;;;;-0.61;100.00;99336.14;1877019;75;20171;-43
2021/01/13 08:12:09;;;;;;;;;;;;;;;-0.61;100.00;99328.84;1880195;75;20162;-41
2021/01/13 08:15:05;;;;;;;;;;;;;;;-0.62;100.00;99321.55;1872075;75;20140;-40
2021/01/13 08:18:09;;;;;;;;;;;;;;;-0.63;100.00;99332.69;1875762;75;20225;-40
2021/01/13 08:21:24;;;;;;;;;;;;;;;-0.59;100.00;99342.14;1860533;75;20219;-40
2021/01/13 08:23:55;;;;;;;;;;;;;;;-0.54;100.00;99349.91;1869139;75;20189;-40
2021/01/13 08:26:23;;;;;;;;;;;;;;;-0.53;100.00;99358.94;1825450;75;20194;-39
2021/01/13 08:28:52;;;;;;;;;;;;;;;-0.50;100.00;99352.92;1878807;75;20180;-42
2021/01/13 08:31:22;;;;;;;;;;;;;;;-0.48;100.00;99355.95;1868056;75;20190;-40
2021/01/13 08:34:03;;;;;;;;;;;;;;;-0.46;100.00;99342.64;1881270;75;20222;-40
2021/01/13 08:36:32;;;;;;;;;;;;;;;-0.43;100.00;99336.66;1837014;77;20180;-40
2021/01/13 08:39:13;;;;;;;;;;;;;;;-0.39;100.00;99342.25;1867220;77;20179;-39
2021/01/13 08:41:44;;;;;;;;;;;;;;;-0.35;100.00;99358.17;1887067;75;20175;-40
2021/01/13 08:44:16;;;;;;;;;;;;;;;-0.31;100.00;99364.19;1855113;75;20263;-40
2021/01/13 08:47:01;;;;;;;;;;;;;;;-0.30;100.00;99358.19;1879734;75;20279;-38
2021/01/13 08:49:30;;;;;;;;;;;;;;;-0.28;100.00;99346.19;1875110;75;20187;-37
2021/01/13 08:52:19;;;;;;;;;;;;;;;-0.26;100.00;99333.73;1880450;75;20823;-38
2021/01/13 08:55:00;;;;;;;;;;;;;;;-0.23;100.00;99338.91;1883482;75;20130;-38
2021/01/13 08:57:30;;;;;;;;;;;;;;;-0.17;100.00;99332.93;1870884;75;20199;-38
2021/01/13 09:00:02;;;;;;;;;;;;;;;-0.13;100.00;99301.20;1868236;75;20194;-39
2021/01/13 09:02:32;;;;;;;;;;;;;;;-0.09;100.00;99284.89;1858159;76;20205;-38
2021/01/13 09:05:02;;;;;;;;;;;;;;;-0.05;100.00;99253.98;1829142;75;20202;-40
2021/01/13 09:07:31;;;;;;;;;;;;;;;0.00;100.00;99237.27;1873738;75;20148;-39
2021/01/13 09:10:01;;;;;;;;;;;;;;;0.02;100.00;99226.52;1872062;75;20152;-40
2021/01/13 09:12:44;;;;;;;;;;;;;;;0.06;100.00;99217.95;1870827;75;20182;-40
2021/01/13 09:15:16;;;;;;;;;;;;;;;0.08;100.00;99215.36;1870209;75;20299;-42
2021/01/13 09:17:56;;;;;;;;;;;;;;;0.11;100.00;99200.78;1877447;75;20363;-43
2021/01/13 09:20:28;;;;;;;;;;;;;;;0.14;100.00;99197.33;1876571;75;20235;-41
2021/01/13 09:23:00;;;;;;;;;;;;;;;0.15;100.00;99199.91;1874843;75;20401;-41
2021/01/13 09:25:32;;;;;;;;;;;;;;;0.17;100.00;99203.78;1874327;75;20229;-38
2021/01/13 09:28:05;;;;;;;;;;;;;;;0.18;100.00;99184.47;1873218;75;20455;-39
2021/01/13 09:30:36;;;;;;;;;;;;;;;0.18;100.00;99179.74;1843673;75;20274;-40
2021/01/13 09:33:10;;;;;;;;;;;;;;;0.20;100.00;99176.72;1871093;75;20146;-38
2021/01/13 09:35:40;;;;;;;;;;;;;;;0.21;100.00;99181.88;1872308;75;20211;-38
2021/01/13 09:38:15;;;;;;;;;;;;;;;0.23;100.00;99179.30;1872374;75;20217;-42
2021/01/13 09:40:56;;;;;;;;;;;;;;;0.25;100.00;99172.45;1866555;75;20150;-41
2021/01/13 09:43:37;;;;;;;;;;;;;;;0.27;100.00;99179.30;1869332;75;20209;-39
2021/01/13 09:46:09;;;;;;;;;;;;;;;0.31;100.00;99166.00;1868996;75;20164;-40
2021/01/13 09:48:37;;;;;;;;;;;;;;;0.32;100.00;99181.47;1857392;75;20216;-39
2021/01/13 09:51:12;;;;;;;;;;;;;;;0.36;100.00;99181.02;1872901;75;20198;-41
2021/01/13 09:53:50;;;;;;;;;;;;;;;0.38;100.00;99177.60;1874848;75;20760;-39
2021/01/13 09:56:18;;;;;;;;;;;;;;;0.43;100.00;99155.67;1871471;75;20471;-41
2021/01/13 09:58:51;;;;;;;;;;;;;;;0.46;100.00;99145.80;1871525;75;20192;-41
2021/01/13 10:01:21;;;;;;;;;;;;;;;0.48;100.00;99149.22;1871369;75;20164;-42
2021/01/13 10:03:50;;;;;;;;;;;;;;;0.51;100.00;99150.09;1870523;75;20347;-40
2021/01/13 10:06:24;;;;;;;;;;;;;;;0.54;100.00;99139.75;1872619;75;20168;-40
2021/01/13 10:08:59;;;;;;;;;;;;;;;0.57;100.00;99129.88;1862219;75;20178;-39
2021/01/13 10:11:28;;;;;;;;;;;;;;;0.58;100.00;99118.70;1870430;75;20217;-39
2021/01/13 10:14:00;;;;;;;;;;;;;;;0.61;100.00;99116.10;1870452;75;20202;-41
2021/01/13 10:16:28;;;;;;;;;;;;;;;0.63;100.00;99102.36;1872505;75;20176;-41
2021/01/13 10:19:03;;;;;;;;;;;;;;;0.66;100.00;99117.80;1872662;75;20350;-41
2021/01/13 10:21:38;;;;;;;;;;;;;;;0.69;100.00;99104.05;1875872;75;20233;-40
2021/01/13 10:26:49;;;;;;;;;;;;;;;0.76;100.00;99102.75;1901059;74;20530;-39
2021/01/13 10:29:22;;;;;;;;;;;;;;;0.74;100.00;99107.47;1849861;75;20579;-39
2021/01/13 10:31:51;;;;;;;;;;;;;;;0.77;100.00;99107.05;1873566;75;20195;-39
2021/01/13 10:34:21;;;;;;;;;;;;;;;0.79;100.00;99112.17;1890406;75;20186;-41
2021/01/13 10:36:52;;;;;;;;;;;;;;;0.81;100.00;99104.02;1871600;75;20146;-43
2021/01/13 10:39:25;;;;;;;;;;;;;;;0.83;100.00;99107.45;1876777;75;20314;-42
2021/01/13 10:41:54;;;;;;;;;;;;;;;0.85;100.00;99101.87;1878081;75;20158;-41
2021/01/13 10:44:28;;;;;;;;;;;;;;;0.85;100.00;99098.00;1873075;75;20128;-42
2021/01/13 10:46:59;;;;;;;;;;;;;;;0.86;100.00;99083.35;1867765;75;20207;-42
2021/01/13 10:49:32;;;;;;;;;;;;;;;0.86;100.00;99077.77;1872313;75;20566;-41
2021/01/13 10:52:18;;;;;;;;;;;;;;;0.88;100.00;99078.63;1869935;75;20230;-41
2021/01/13 10:54:49;;;;;;;;;;;;;;;0.89;100.00;99078.19;1868380;75;20305;-41
2021/01/13 10:57:31;;;;;;;;;;;;;;;0.91;100.00;99068.31;1871322;75;20459;-42
2021/01/13 11:00:11;;;;;;;;;;;;;;;0.93;100.00;99066.98;1867319;75;20166;-39
2021/01/13 11:02:39;;;;;;;;;;;;;;;0.97;100.00;99056.67;1876940;75;20191;-41
2021/01/13 11:05:09;;;;;;;;;;;;;;;1.00;100.00;99051.48;1882236;75;20181;-42
2021/01/13 11:07:40;;;;;;;;;;;;;;;1.04;100.00;99040.30;1882542;75;20202;-42
2021/01/13 11:10:11;;;;;;;;;;;;;;;1.08;100.00;99034.67;1871411;75;20584;-42
2021/01/13 11:12:40;;;;;;;;;;;;;;;1.09;100.00;99037.25;1872508;75;20203;-43
2021/01/13 11:15:09;;;;;;;;;;;;;;;1.10;100.00;99026.06;1873380;75;20284;-41
2021/01/13 11:17:37;;;;;;;;;;;;;;;1.12;100.00;99010.55;1875165;75;20113;-44
2021/01/13 11:20:07;;;;;;;;;;;;;;;1.13;100.00;99011.84;1873708;75;20175;-44
2021/01/13 11:22:48;;;;;;;;;;;;;;;1.14;100.00;99017.86;1873382;75;20190;-41
2021/01/13 11:25:27;;;;;;;;;;;;;;;1.16;100.00;99022.59;1869870;75;20197;-43
2021/01/13 11:28:00;;;;;;;;;;;;;;;1.19;100.00;99021.26;1873008;75;20209;-42
2021/01/13 11:30:29;;;;;;;;;;;;;;;1.20;100.00;99008.36;1872789;75;20196;-42
2021/01/13 11:33:00;;;;;;;;;;;;;;;1.21;100.00;98995.02;1869613;75;20120;-43
2021/01/13 11:35:29;;;;;;;;;;;;;;;1.22;100.00;98990.28;1867028;75;20201;-43
2021/01/13 11:38:30;;;;;;;;;;;;;;;1.23;100.00;98983.40;1888235;75;20132;-44
2021/01/13 11:41:04;;;;;;;;;;;;;;;1.25;100.00;98976.52;1874492;75;20170;-42
2021/01/13 11:43:48;;;;;;;;;;;;;;;1.27;100.00;98978.20;1869138;75;20309;-43
2021/01/13 11:46:40;;;;;;;;;;;;;;;1.29;100.00;98973.89;1872464;75;20138;-42
2021/01/13 11:49:18;;;;;;;;;;;;;;;1.29;100.00;98971.73;1872027;75;20142;-43
2021/01/13 11:51:48;;;;;;;;;;;;;;;1.30;100.00;98961.84;1873873;75;20176;-42
2021/01/13 11:54:24;;;;;;;;;;;;;;;1.30;100.00;98970.88;1875788;75;20204;-43
2021/01/13 11:56:52;;;;;;;;;;;;;;;1.31;100.00;98990.23;1872145;75;20191;-40
2021/01/13 11:59:28;;;;;;;;;;;;;;;1.32;100.00;98975.57;1869349;75;20304;-43
2021/01/13 12:01:57;;;;;;;;;;;;;;;1.33;100.00;98960.08;1871693;75;20247;-41
2021/01/13 12:04:25;;;;;;;;;;;;;;;1.35;100.00;98967.39;1876948;75;20218;-42
2021/01/13 12:06:55;;;;;;;;;;;;;;;1.37;100.00;98964.80;1870466;75;20177;-39
2021/01/13 12:09:26;;;;;;;;;;;;;;;1.38;100.00;98967.81;1873018;75;20213;-42
2021/01/13 12:11:53;;;;;;;;;;;;;;;1.40;100.00;98946.69;1872583;75;20287;-43
2021/01/13 12:14:22;;;;;;;;;;;;;;;1.41;100.00;98949.27;1869715;75;20229;-43
2021/01/13 12:17:02;;;;;;;;;;;;;;;1.41;100.00;98948.41;1847683;75;20486;-41
2021/01/13 12:19:40;;;;;;;;;;;;;;;1.42;100.00;98947.11;1871779;75;20183;-43
2021/01/13 12:22:09;;;;;;;;;;;;;;;1.44;100.00;98937.64;1867400;75;20121;-44
2021/01/13 12:24:42;;;;;;;;;;;;;;;1.47;100.00;98956.09;1869395;75;20578;-43
2021/01/13 12:27:24;;;;;;;;;;;;;;;1.50;100.00;98947.91;1871269;75;20547;-42
2021/01/13 12:30:12;;;;;;;;;;;;;;;1.53;100.00;98945.28;1868381;75;20178;-43
2021/01/13 12:32:42;;;;;;;;;;;;;;;1.55;100.00;98947.43;1869506;75;21140;-41
2021/01/13 12:35:13;;;;;;;;;;;;;;;1.56;100.00;98941.40;1870915;75;20545;-43
2021/01/13 12:37:46;;;;;;;;;;;;;;;1.57;100.00;98947.42;1868326;75;20209;-43
2021/01/13 12:40:15;;;;;;;;;;;;;;;1.59;100.00;98943.08;1869876;75;20160;-47
2021/01/13 12:42:43;;;;;;;;;;;;;;;1.60;100.00;98953.84;1871039;75;20205;-42
2021/01/13 12:45:11;;;;;;;;;;;;;;;1.58;100.00;98956.42;1874402;75;20137;-42
2021/01/13 12:47:40;;;;;;;;;;;;;;;1.58;100.00;98957.72;1873442;75;20475;-42
2021/01/13 12:50:09;;;;;;;;;;;;;;;1.60;100.00;98950.82;1870533;75;20223;-45
2021/01/13 12:52:39;;;;;;;;;;;;;;;1.62;100.00;98957.70;1866975;75;20213;-43
2021/01/13 12:55:09;;;;;;;;;;;;;;;1.62;100.00;98957.27;1870303;75;20202;-41
2021/01/13 12:57:37;;;;;;;;;;;;;;;1.62;100.00;98948.23;1876466;75;20133;-39
2021/01/13 13:00:07;;;;;;;;;;;;;;;1.62;100.00;98918.53;1866692;75;20233;-43
2021/01/13 13:02:35;;;;;;;;;;;;;;;1.65;100.00;98918.48;1870087;75;20195;-41
2021/01/13 13:05:04;;;;;;;;;;;;;;;1.68;100.00;98926.65;1870995;75;20261;-42
2021/01/13 13:07:35;;;;;;;;;;;;;;;1.69;100.00;98926.64;1872361;75;20447;-43
2021/01/13 13:10:04;;;;;;;;;;;;;;;1.68;100.00;98930.52;1870760;75;20197;-40
2021/01/13 13:12:32;;;;;;;;;;;;;;;1.69;100.00;98941.28;1869802;75;20490;-46
2021/01/13 13:15:00;;;;;;;;;;;;;;;1.69;100.00;98936.12;1852189;76;20168;-42
2021/01/13 13:17:28;;;;;;;;;;;;;;;1.68;100.00;98935.26;1869405;75;20169;-40
2021/01/13 13:19:56;;;;;;;;;;;;;;;1.69;100.00;98947.31;1870451;75;20292;-39